FNKU

Kuito Airport

Kuito, Angola
TAF FNKU 251045Z 2512/2524 12010KT 9999 FEW015 PROB30 TEMPO 2516/2523 VRB03KT 9000 SCT020 BKN050
Issued Valid From Valid To
Apr-25 @ 10:45 UTC
(8 hours ago)
Apr-25 @ 12:00 UTC
(6 hours ago)
Apr-26 @ 00:00 UTC
(in 6 hours)
Apr-25 @ 12:00 to Apr-26 @ 00:00
TAF FNKU 251045Z 2512/2524 12010KT 9999 FEW015
Wind Visibility Clouds
120° at 10 knots 10,000+ meters
  • Few at 1,500' AGL
Temporary  (Probability 30%) Apr-25 @ 16:00 to Apr-25 @ 23:00
PROB30 TEMPO 2516/2523 VRB03KT 9000 SCT020 BKN050
Wind Visibility Clouds
Variable at 3 knots 8,996 meters
  • Scattered at 2,000' AGL
  • Broken at 5,000' AGL
TAF FNKU 251045Z 2512/2524 12010KT 9999 FEW015 PROB30 TEMPO 2516/2523 VRB03KT 9000 SCT020 BKN050
Issued Apr-25 @ 10:45 UTC
(8 hours ago)
Valid From Apr-25 @ 12:00 UTC
(6 hours ago)
Valid To Apr-26 @ 00:00 UTC
(in 6 hours)
Apr-25 @ 12:00 - Apr-26 @ 00:00
Wind Visibility
120° at 10 knots 10,000+ meters
Clouds
  • Few at 1,500' AGL
Probability 30% Temporary Apr-25 @ 16:00 - Apr-25 @ 23:00
Wind Visibility
Variable at 3 knots 8,996 meters
Clouds
  • Scattered at 2,000' AGL
  • Broken at 5,000' AGL